Time;durP1;ratioP1;P1;durP2;ratioP2;P2;SDS_P1;SDS_P2;PMS_P1;PMS_P2;Temp;Humidity;BMP_temperature;BMP_pressure;BME280_temperature;BME280_humidity;BME280_pressure;Samples;Min_cycle;Max_cycle;Signal;HPM_P1;HPM_P2
2022/09/18 00:01:20;;;;;;;10.18;5.22;;;;;;;11.36;87.34;99323.49;1694435;83;26522;-77
2022/09/18 00:03:46;;;;;;;;;;;;;;;11.35;87.41;99324.55;1688842;83;25911;-77
2022/09/18 00:06:22;;;;;;;8.23;5.92;;;;;;;11.33;87.54;99318.59;1693935;84;28166;-77
2022/09/18 00:08:54;;;;;;;11.40;6.58;;;;;;;11.31;87.72;99319.34;1692566;83;26373;-78
2022/09/18 00:11:24;;;;;;;9.65;6.03;;;;;;;11.32;87.79;99322.30;1687514;83;25905;-78
2022/09/18 00:13:51;;;;;;;10.08;5.85;;;;;;;11.33;87.88;99321.27;1690166;83;26549;-79
2022/09/18 00:16:20;;;;;;;9.15;6.40;;;;;;;11.32;88.12;99323.13;1690679;84;26511;-78
2022/09/18 00:18:47;;;;;;;8.48;6.05;;;;;;;11.30;88.20;99323.88;1685117;83;27459;-78
2022/09/18 00:21:28;;;;;;;9.05;6.42;;;;;;;11.32;88.39;99318.28;1693358;83;25808;-79
2022/09/18 00:23:57;;;;;;;11.97;7.05;;;;;;;11.32;88.45;99320.45;1696261;83;25671;-78
2022/09/18 00:26:26;;;;;;;11.68;6.60;;;;;;;11.31;88.56;99326.84;1687097;84;25844;-79
2022/09/18 00:28:57;;;;;;;7.72;5.80;;;;;;;11.29;88.57;99324.91;1686834;83;26234;-78
2022/09/18 00:31:28;;;;;;;10.80;6.83;;;;;;;11.28;88.58;99325.95;1670367;83;28448;-78
2022/09/18 00:34:01;;;;;;;9.98;6.25;;;;;;;11.27;88.74;99328.88;1668716;83;26078;-78
2022/09/18 00:36:28;;;;;;;11.38;6.12;;;;;;;11.28;89.01;99327.30;1701580;83;25816;-78
2022/09/18 00:38:58;;;;;;;12.60;6.37;;;;;;;11.26;89.16;99331.23;1680009;84;25867;-78
2022/09/18 00:41:29;;;;;;;12.45;6.78;;;;;;;11.26;89.35;99328.05;1688274;83;25826;-79
2022/09/18 00:44:26;;;;;;;9.63;6.37;;;;;;;11.30;89.47;99333.77;1687665;83;27457;-78
2022/09/18 00:46:53;;;;;;;14.35;6.67;;;;;;;11.31;89.56;99326.84;1686676;84;25763;-79
2022/09/18 00:49:26;;;;;;;11.12;6.08;;;;;;;11.33;89.73;99326.64;1678411;83;25865;-79
2022/09/18 00:51:56;;;;;;;13.05;6.67;;;;;;;11.32;89.79;99327.16;1674854;84;25786;-79
2022/09/18 00:54:28;;;;;;;10.08;5.70;;;;;;;11.32;89.90;99325.81;1691101;83;26455;-80
2022/09/18 00:56:59;;;;;;;9.60;6.05;;;;;;;11.33;90.00;99327.98;1665192;83;26913;-79
2022/09/18 00:59:29;;;;;;;11.00;6.33;;;;;;;11.33;90.12;99327.98;1695830;83;25877;-79
2022/09/18 01:01:57;;;;;;;;;;;;;;;11.33;90.29;99326.09;1685578;83;26477;-79
2022/09/18 01:04:23;;;;;;;9.90;6.17;;;;;;;11.34;90.43;99332.28;1689527;83;25861;-79
2022/09/18 01:07:05;;;;;;;14.95;7.22;;;;;;;11.30;90.50;99330.58;1688886;84;25971;-79
2022/09/18 01:09:48;;;;;;;11.22;7.67;;;;;;;11.32;90.55;99331.17;1690216;83;27450;-79
2022/09/18 01:12:39;;;;;;;15.32;9.80;;;;;;;11.34;90.54;99328.27;1677458;83;26340;-79
2022/09/18 01:15:17;;;;;;;15.10;12.50;;;;;;;11.35;90.69;99329.91;1689684;83;26120;-78
2022/09/18 01:17:54;;;;;;;15.78;8.90;;;;;;;11.33;90.79;99328.77;1683429;83;25830;-78
2022/09/18 01:20:54;;;;;;;13.88;11.22;;;;;;;11.35;90.93;99332.59;1688324;83;25970;-77
2022/09/18 01:23:48;;;;;;;13.00;9.50;;;;;;;11.33;91.00;99336.81;1648806;84;27725;-78
2022/09/18 01:26:55;;;;;;;14.70;7.10;;;;;;;11.33;91.14;99334.68;1695171;83;26055;-78
2022/09/18 01:29:54;;;;;;;12.25;6.50;;;;;;;11.34;91.23;99334.96;1687098;83;25857;-78
2022/09/18 01:32:32;;;;;;;8.93;6.10;;;;;;;11.34;91.40;99335.78;1692006;83;26011;-79
2022/09/18 01:35:19;;;;;;;13.10;7.33;;;;;;;11.35;91.54;99332.08;1687427;84;25870;-77
2022/09/18 01:37:53;;;;;;;11.78;6.30;;;;;;;11.35;91.69;99332.59;1692256;83;27624;-78
2022/09/18 01:40:51;;;;;;;12.00;5.95;;;;;;;11.36;91.75;99328.34;1665027;84;26505;-79
2022/09/18 01:43:19;;;;;;;13.75;6.65;;;;;;;11.35;91.92;99326.72;1689757;84;25840;-78
2022/09/18 01:45:50;;;;;;;11.55;7.03;;;;;;;11.33;92.15;99323.95;1690256;83;26550;-79
2022/09/18 01:48:35;;;;;;;11.25;6.28;;;;;;;11.34;92.24;99324.23;1690128;84;25306;-78
2022/09/18 01:51:23;;;;;;;13.50;6.30;;;;;;;11.35;92.33;99321.88;1684646;84;27438;-78
2022/09/18 01:54:11;;;;;;;12.53;6.00;;;;;;;11.37;92.36;99321.13;1682630;83;26019;-77
2022/09/18 01:56:43;;;;;;;10.35;6.03;;;;;;;11.39;92.41;99315.84;1650512;85;25966;-78
2022/09/18 01:59:21;;;;;;;13.03;6.28;;;;;;;11.39;92.49;99315.02;1650303;84;26544;-79
2022/09/18 02:01:52;;;;;;;11.60;5.97;;;;;;;11.39;92.56;99314.50;1679480;83;25730;-78
2022/09/18 02:04:25;;;;;;;14.98;6.25;;;;;;;11.39;92.71;99313.68;1690198;83;27643;-79
2022/09/18 02:07:16;;;;;;;16.50;5.92;;;;;;;11.37;92.76;99315.25;1684039;83;26512;-80
2022/09/18 02:09:43;;;;;;;13.13;6.42;;;;;;;11.37;92.89;99312.57;1680727;84;25881;-78
2022/09/18 02:12:15;;;;;;;12.37;5.70;;;;;;;11.35;93.02;99314.66;1687683;84;26511;-78
2022/09/18 02:14:46;;;;;;;8.28;5.58;;;;;;;11.34;93.12;99314.34;1689039;83;25880;-79
2022/09/18 02:17:50;;;;;;;16.77;6.65;;;;;;;11.32;93.24;99313.75;1641820;85;28322;-78
2022/09/18 02:20:30;;;;;;;10.78;5.33;;;;;;;11.33;93.28;99301.97;1677320;84;25826;-80
2022/09/18 02:23:01;;;;;;;;;;;;;;;11.36;93.41;99307.41;1681925;84;26449;-79
2022/09/18 02:25:44;;;;;;;8.83;4.80;;;;;;;11.37;93.41;99305.04;1684432;83;25880;-78
2022/09/18 02:28:14;;;;;;;8.05;5.33;;;;;;;11.35;93.48;99303.93;1667255;83;26004;-78
2022/09/18 02:30:42;;;;;;;8.88;4.97;;;;;;;11.35;93.57;99300.42;1685088;83;28370;-79
2022/09/18 02:33:29;;;;;;;12.07;6.12;;;;;;;11.37;93.57;99299.67;1692083;83;25865;-78
2022/09/18 02:36:13;;;;;;;9.93;5.12;;;;;;;11.38;93.58;99298.11;1691577;83;25809;-79
2022/09/18 02:39:07;;;;;;;12.70;5.70;;;;;;;11.41;93.56;99293.65;1682522;83;25798;-79
2022/09/18 02:42:00;;;;;;;9.35;5.25;;;;;;;11.42;93.52;99293.93;1698497;82;26246;-79
2022/09/18 02:44:36;;;;;;;12.23;5.85;;;;;;;11.44;93.50;99301.23;1687939;83;27456;-78
2022/09/18 02:47:56;;;;;;;14.85;6.42;;;;;;;11.45;93.54;99302.05;1690048;83;25834;-77
2022/09/18 02:50:38;;;;;;;13.32;7.03;;;;;;;11.43;93.47;99298.27;1662359;84;25755;-79
2022/09/18 02:53:25;;;;;;;12.18;6.28;;;;;;;11.44;93.54;99297.75;1682861;83;25815;-78
2022/09/18 02:56:21;;;;;;;10.43;6.58;;;;;;;11.45;93.48;99300.20;1685890;83;25709;-78
2022/09/18 02:59:04;;;;;;;9.93;6.00;;;;;;;11.45;93.49;99299.37;1680043;84;27434;-79
2022/09/18 03:01:32;;;;;;;10.60;6.37;;;;;;;11.45;93.53;99298.86;1666240;85;25556;-79
2022/09/18 03:04:04;;;;;;;11.50;6.08;;;;;;;11.45;93.50;99295.35;1674381;83;25635;-79
2022/09/18 03:06:32;;;;;;;11.85;5.75;;;;;;;11.46;93.51;99295.66;1691787;83;25559;-78
2022/09/18 03:08:59;;;;;;;12.95;5.28;;;;;;;11.46;93.49;99301.03;1693967;82;25548;-79
2022/09/18 03:11:25;;;;;;;14.73;5.75;;;;;;;11.47;93.54;99296.77;1695519;83;27458;-79
2022/09/18 03:13:53;;;;;;;17.85;5.08;;;;;;;11.47;93.50;99292.75;1692888;83;25823;-79
2022/09/18 03:16:19;;;;;;;9.98;4.90;;;;;;;11.46;93.44;99297.00;1696565;83;25796;-79
2022/09/18 03:18:47;;;;;;;15.48;5.90;;;;;;;11.47;93.52;99295.94;1696365;83;26605;-78
2022/09/18 03:21:14;;;;;;;13.18;5.00;;;;;;;11.47;93.56;99293.27;1689924;83;25768;-79
2022/09/18 03:23:40;;;;;;;11.80;4.83;;;;;;;11.48;93.60;99298.39;1696870;83;27461;-80
2022/09/18 03:26:08;;;;;;;6.78;3.92;;;;;;;11.47;93.60;99288.73;1696727;83;25847;-78
2022/09/18 03:28:35;;;;;;;9.25;4.50;;;;;;;11.47;93.56;99288.73;1690960;83;26500;-79
2022/09/18 03:31:02;;;;;;;11.90;4.28;;;;;;;11.47;93.57;99289.24;1694735;83;25826;-79
2022/09/18 03:33:30;;;;;;;12.88;4.17;;;;;;;11.45;93.58;99286.80;1699050;83;26423;-79
2022/09/18 03:35:56;;;;;;;7.55;3.90;;;;;;;11.45;93.62;99283.28;1694876;83;27448;-79
2022/09/18 03:38:24;;;;;;;11.73;4.12;;;;;;;11.43;93.67;99282.17;1694974;83;26067;-79
2022/09/18 03:40:52;;;;;;;9.60;4.30;;;;;;;11.44;93.64;99284.34;1696640;83;25844;-79
2022/09/18 03:43:19;;;;;;;8.05;3.70;;;;;;;11.41;93.65;99281.58;1694623;83;25826;-79
2022/09/18 03:45:45;;;;;;;10.60;4.12;;;;;;;11.42;93.70;99281.04;1695224;83;25762;-79
2022/09/18 03:48:13;;;;;;;7.65;3.58;;;;;;;11.42;93.76;99280.52;1701192;82;27488;-79
2022/09/18 03:50:40;;;;;;;10.65;3.90;;;;;;;11.42;93.73;99277.02;1693271;83;26377;-79
2022/09/18 03:53:10;;;;;;;10.15;3.92;;;;;;;11.42;93.75;99278.36;1696006;83;25837;-79
2022/09/18 03:55:41;;;;;;;12.23;4.50;;;;;;;11.42;93.78;99271.14;1686973;83;25917;-79
2022/09/18 03:58:26;;;;;;;8.55;3.62;;;;;;;11.42;93.70;99273.00;1694161;83;25726;-79
2022/09/18 04:01:12;;;;;;;15.30;4.62;;;;;;;11.41;93.66;99276.22;1688540;82;26954;-79
2022/09/18 04:03:40;;;;;;;16.25;6.12;;;;;;;11.41;93.67;99281.58;1678464;84;25891;-78
2022/09/18 04:06:17;;;;;;;10.08;4.78;;;;;;;11.40;93.71;99288.48;1678818;83;25954;-79
2022/09/18 04:08:55;;;;;;;10.98;4.50;;;;;;;11.39;93.75;99285.52;1681351;83;26308;-78
2022/09/18 04:11:23;;;;;;;9.98;5.35;;;;;;;11.38;93.84;99288.72;1693750;83;25926;-79
2022/09/18 04:13:50;;;;;;;15.93;6.33;;;;;;;11.39;93.90;99295.73;1691470;83;27530;-78
2022/09/18 04:16:17;;;;;;;11.55;5.35;;;;;;;11.41;93.92;99296.33;1695034;83;25783;-79
2022/09/18 04:18:44;;;;;;;9.85;5.12;;;;;;;11.42;93.96;99293.93;1698048;82;25847;-79
2022/09/18 04:21:10;;;;;;;9.98;4.22;;;;;;;11.43;93.90;99291.56;1695252;83;26562;-79
2022/09/18 04:23:37;;;;;;;7.67;4.70;;;;;;;11.43;93.90;99296.09;1694635;83;25725;-79
2022/09/18 04:26:08;;;;;;;10.18;3.37;;;;;;;11.43;93.92;99298.27;1699445;83;27701;-80
2022/09/18 04:28:32;;;;;;;13.88;5.25;;;;;;;11.44;93.93;99301.23;1694902;83;26107;-79
2022/09/18 04:30:58;;;;;;;7.65;3.95;;;;;;;11.44;93.80;99303.91;1691563;83;26494;-78
2022/09/18 04:33:25;;;;;;;8.68;4.58;;;;;;;11.43;93.79;99313.02;1685400;83;25752;-79
2022/09/18 04:35:51;;;;;;;12.23;4.42;;;;;;;11.44;93.84;99315.17;1678611;82;25882;-79
2022/09/18 04:38:26;;;;;;;8.78;4.03;;;;;;;11.46;93.81;99311.75;1657224;83;27449;-79
2022/09/18 04:40:54;;;;;;;9.48;3.87;;;;;;;11.44;93.77;99317.86;1694144;83;25999;-79
2022/09/18 04:43:21;;;;;;;8.45;4.05;;;;;;;11.43;93.76;99317.03;1689769;83;25792;-79
2022/09/18 04:45:48;;;;;;;9.95;3.65;;;;;;;11.45;93.78;99316.28;1692560;83;26422;-79
2022/09/18 04:48:17;;;;;;;9.83;4.37;;;;;;;11.47;93.64;99323.59;1625646;86;26334;-79
2022/09/18 04:50:46;;;;;;;9.45;3.65;;;;;;;11.46;93.44;99322.48;1666649;83;27448;-78
2022/09/18 04:53:15;;;;;;;9.13;4.12;;;;;;;11.45;93.42;99325.67;1690921;83;25706;-78
2022/09/18 04:55:43;;;;;;;8.05;3.52;;;;;;;11.45;93.44;99316.28;1690537;83;25665;-79
2022/09/18 04:58:12;;;;;;;9.60;3.40;;;;;;;11.46;93.33;99324.61;1691470;83;25820;-79
2022/09/18 05:00:40;;;;;;;8.33;3.02;;;;;;;11.44;93.15;99321.88;1678408;83;25962;-80
2022/09/18 05:03:08;;;;;;;8.40;3.30;;;;;;;11.42;92.98;99325.28;1694339;83;27488;-79
2022/09/18 05:05:36;;;;;;;7.67;3.47;;;;;;;11.39;92.88;99325.23;1691699;83;25852;-79
2022/09/18 05:08:03;;;;;;;5.75;3.25;;;;;;;11.37;92.83;99327.31;1693457;83;25813;-78
2022/09/18 05:10:30;;;;;;;8.78;3.30;;;;;;;11.37;92.78;99329.17;1696218;83;26594;-78
2022/09/18 05:12:57;;;;;;;10.03;3.37;;;;;;;11.38;92.73;99334.81;1690084;83;25810;-79
2022/09/18 05:15:23;;;;;;;5.72;3.00;;;;;;;11.37;92.51;99334.02;1690025;83;27435;-79
2022/09/18 05:18:02;;;;;;;9.25;3.42;;;;;;;11.36;92.43;99331.53;1693621;83;25783;-79
2022/09/18 05:20:30;;;;;;;7.65;3.12;;;;;;;11.34;92.35;99331.77;1700175;82;25537;-79
2022/09/18 05:22:58;;;;;;;7.03;3.45;;;;;;;11.31;92.25;99331.41;1696962;83;26658;-79
2022/09/18 05:25:27;;;;;;;8.73;4.10;;;;;;;11.31;92.23;99330.06;1692308;83;25715;-78
2022/09/18 05:28:02;;;;;;;5.33;3.12;;;;;;;11.30;92.17;99337.28;1691184;83;28242;-79
2022/09/18 05:30:30;;;;;;;4.53;2.60;;;;;;;11.29;92.14;99331.60;1689294;83;25936;-79
2022/09/18 05:33:07;;;;;;;6.50;3.50;;;;;;;11.30;91.93;99329.75;1698048;83;25887;-78
2022/09/18 05:35:35;;;;;;;5.10;2.60;;;;;;;11.25;91.78;99330.41;1703099;82;26369;-80
2022/09/18 05:38:02;;;;;;;7.08;2.52;;;;;;;11.24;91.75;99331.47;1692850;83;26402;-79
2022/09/18 05:40:33;;;;;;;8.35;3.40;;;;;;;11.22;91.79;99332.21;1695209;83;27466;-80
2022/09/18 05:43:01;;;;;;;4.53;2.58;;;;;;;11.24;91.68;99330.13;1696433;83;25895;-78
2022/09/18 05:45:30;;;;;;;6.65;2.85;;;;;;;11.21;91.58;99328.39;1691246;83;25478;-80
2022/09/18 05:48:04;;;;;;;4.10;2.60;;;;;;;11.17;91.36;99331.22;1692533;83;25752;-78
2022/09/18 05:50:33;;;;;;;4.45;2.20;;;;;;;11.14;91.36;99331.13;1688409;83;26055;-80
2022/09/18 05:53:03;;;;;;;5.83;2.50;;;;;;;11.13;91.40;99326.00;1691701;83;27528;-78
2022/09/18 05:55:33;;;;;;;5.50;2.55;;;;;;;11.14;91.40;99333.02;1694291;83;26451;-78
2022/09/18 05:58:03;;;;;;;4.35;2.37;;;;;;;11.13;91.34;99328.69;1695613;83;25799;-78
2022/09/18 06:00:33;;;;;;;4.17;3.05;;;;;;;11.11;91.08;99331.59;1695061;83;25770;-78
2022/09/18 06:03:05;;;;;;;7.78;2.67;;;;;;;11.09;90.84;99328.83;1692715;83;25748;-77
2022/09/18 06:05:34;;;;;;;6.05;2.50;;;;;;;11.07;90.76;99332.25;1687497;83;28474;-78
2022/09/18 06:08:03;;;;;;;4.42;2.77;;;;;;;11.08;90.79;99327.17;1646596;84;26429;-78
2022/09/18 06:10:32;;;;;;;3.85;2.70;;;;;;;11.08;90.70;99332.53;1678211;83;25767;-78
2022/09/18 06:13:06;;;;;;;5.22;2.67;;;;;;;11.09;90.69;99331.51;1671371;83;26526;-78
2022/09/18 06:15:33;;;;;;;3.72;2.40;;;;;;;11.07;90.67;99337.09;1698470;83;26437;-79
2022/09/18 06:18:00;;;;;;;6.75;2.80;;;;;;;11.06;90.38;99339.47;1677065;83;28294;-77
2022/09/18 06:20:27;;;;;;;9.58;3.62;;;;;;;11.08;90.28;99345.94;1691520;83;25937;-77
2022/09/18 06:23:00;;;;;;;4.20;2.10;;;;;;;11.06;90.02;99348.84;1679527;84;25581;-79
2022/09/18 06:25:29;;;;;;;5.55;2.22;;;;;;;11.06;90.18;99349.35;1686173;83;26655;-78
2022/09/18 06:27:57;;;;;;;4.53;2.50;;;;;;;11.09;90.24;99348.41;1684448;83;25849;-77
2022/09/18 06:30:27;;;;;;;3.08;2.10;;;;;;;11.11;90.04;99346.33;1687981;83;27512;-79
2022/09/18 06:32:55;;;;;;;2.85;1.32;;;;;;;11.13;90.08;99340.23;1665462;83;25817;-78
2022/09/18 06:35:23;;;;;;;5.00;2.25;;;;;;;11.17;89.81;99341.42;1689919;83;26601;-78
2022/09/18 06:37:50;;;;;;;3.75;2.00;;;;;;;11.15;89.61;99342.17;1676352;84;26009;-78
2022/09/18 06:40:21;;;;;;;5.25;2.00;;;;;;;11.18;89.58;99344.94;1679651;83;25919;-78
2022/09/18 06:42:58;;;;;;;5.75;2.92;;;;;;;11.15;89.06;99340.00;1673792;84;27549;-79
2022/09/18 06:45:31;;;;;;;5.05;2.17;;;;;;;11.12;88.98;99344.48;1686409;83;25831;-78
2022/09/18 06:48:03;;;;;;;5.08;2.33;;;;;;;11.14;89.31;99344.53;1691836;83;26431;-78
2022/09/18 06:50:31;;;;;;;7.87;1.92;;;;;;;11.13;89.03;99343.42;1683173;83;26369;-78
2022/09/18 06:53:06;;;;;;;5.00;2.90;;;;;;;11.14;88.90;99346.42;1685741;83;25726;-78
2022/09/18 06:55:34;;;;;;;3.70;2.10;;;;;;;11.14;88.73;99343.19;1695386;81;28446;-78
2022/09/18 06:58:00;;;;;;;6.67;2.67;;;;;;;11.12;88.54;99345.82;1679136;83;25788;-78
2022/09/18 07:00:27;;;;;;;3.62;2.20;;;;;;;11.08;88.37;99348.61;1690309;83;25776;-78
2022/09/18 07:03:00;;;;;;;5.75;2.30;;;;;;;11.10;88.65;99346.02;1688583;83;25848;-78
2022/09/18 07:05:45;;;;;;;5.80;2.35;;;;;;;11.15;88.64;99350.72;1695319;83;25775;-78
2022/09/18 07:08:13;;;;;;;5.08;2.72;;;;;;;11.21;88.84;99356.02;1689517;83;27427;-78
2022/09/18 07:10:40;;;;;;;6.33;4.78;;;;;;;11.24;88.48;99354.77;1656583;83;25887;-78
2022/09/18 07:13:06;;;;;;;10.98;5.10;;;;;;;11.29;88.66;99360.30;1692687;83;25864;-79
2022/09/18 07:15:35;;;;;;;6.97;5.37;;;;;;;11.30;88.51;99359.23;1687937;83;25806;-78
2022/09/18 07:18:05;;;;;;;11.53;5.67;;;;;;;11.33;88.38;99365.51;1686257;83;25751;-78
2022/09/18 07:20:32;;;;;;;13.13;4.70;;;;;;;11.37;88.48;99360.83;1682044;83;28446;-78
2022/09/18 07:23:01;;;;;;;3.65;2.72;;;;;;;11.41;88.69;99362.02;1689660;83;25777;-78
2022/09/18 07:25:32;;;;;;;7.28;3.02;;;;;;;11.47;88.29;99368.34;1689374;83;25775;-78
2022/09/18 07:28:07;;;;;;;6.17;2.45;;;;;;;11.49;88.02;99370.28;1685210;83;25787;-78
2022/09/18 07:30:36;;;;;;;6.85;2.55;;;;;;;11.52;88.05;99374.70;1681625;83;25992;-78
2022/09/18 07:33:07;;;;;;;5.00;2.30;;;;;;;11.52;87.77;99368.51;1686227;83;27499;-78
2022/09/18 07:35:35;;;;;;;4.97;2.15;;;;;;;11.54;87.79;99375.30;1673490;83;25895;-79
2022/09/18 07:38:05;;;;;;;6.17;2.12;;;;;;;11.54;87.41;99369.93;1683597;83;25895;-78
2022/09/18 07:40:44;;;;;;;5.78;2.08;;;;;;;11.57;87.44;99374.83;1693795;82;26541;-78
2022/09/18 07:43:12;;;;;;;5.63;2.23;;;;;;;11.55;87.00;99374.75;1688789;83;26113;-78
2022/09/18 07:45:42;;;;;;;5.83;2.52;;;;;;;11.57;87.28;99381.53;1645265;85;28293;-78
2022/09/18 07:48:09;;;;;;;8.88;2.58;;;;;;;11.60;87.27;99381.10;1688957;83;25759;-79
2022/09/18 07:50:38;;;;;;;7.87;2.55;;;;;;;11.64;86.96;99376.10;1694137;83;25845;-78
2022/09/18 07:53:07;;;;;;;8.43;2.77;;;;;;;11.64;86.65;99381.47;1686677;83;26481;-79
2022/09/18 07:55:36;;;;;;;5.65;2.70;;;;;;;11.66;87.03;99379.38;1665246;83;26022;-79
2022/09/18 07:58:05;;;;;;;4.47;2.47;;;;;;;11.71;86.79;99386.28;1680762;83;27487;-78
2022/09/18 08:00:50;;;;;;;5.40;2.20;;;;;;;11.74;86.65;99386.36;1694692;83;25815;-78
2022/09/18 08:03:17;;;;;;;7.70;2.08;;;;;;;11.75;87.04;99378.59;1644237;84;25719;-79
2022/09/18 08:06:03;;;;;;;7.25;2.35;;;;;;;11.82;87.25;99377.48;1682015;84;25957;-78
2022/09/18 08:08:29;;;;;;;4.92;2.40;;;;;;;11.89;87.24;99378.21;1687530;83;25770;-79
2022/09/18 08:11:14;;;;;;;4.50;1.90;;;;;;;11.99;87.32;99373.67;1668042;84;28231;-79
2022/09/18 08:13:57;;;;;;;6.55;3.37;;;;;;;12.02;86.53;99383.42;1691231;83;25790;-78
2022/09/18 08:16:25;;;;;;;6.53;3.22;;;;;;;12.07;86.68;99380.06;1685264;83;25834;-79
2022/09/18 08:18:56;;;;;;;7.67;2.80;;;;;;;12.14;86.37;99376.78;1685672;83;26028;-79
2022/09/18 08:21:24;;;;;;;5.55;2.08;;;;;;;12.18;86.10;99371.25;1691646;83;33246;-79
2022/09/18 08:23:52;;;;;;;5.90;2.30;;;;;;;12.23;85.54;99372.75;1690932;83;27507;-78
2022/09/18 08:26:18;;;;;;;4.70;2.80;;;;;;;12.28;85.92;99366.16;1699016;83;25738;-80
2022/09/18 08:28:48;;;;;;;7.37;3.22;;;;;;;12.39;85.90;99367.55;1648292;85;25755;-79
2022/09/18 08:31:15;;;;;;;3.98;2.22;;;;;;;12.48;85.67;99369.91;1677481;83;26374;-78
2022/09/18 08:33:41;;;;;;;6.30;2.15;;;;;;;12.55;85.62;99367.44;1689605;83;27055;-79
2022/09/18 08:36:09;;;;;;;5.58;2.00;;;;;;;12.65;85.30;99367.69;1690854;83;28302;-80
2022/09/18 08:38:37;;;;;;;5.78;2.08;;;;;;;12.74;85.06;99364.15;1689794;83;25738;-78
2022/09/18 08:41:35;;;;;;;4.10;2.10;;;;;;;12.80;84.49;99365.39;1601012;87;26031;-79
2022/09/18 08:44:09;;;;;;;6.90;2.15;;;;;;;12.81;83.50;99364.33;1672783;83;25876;-79
2022/09/18 08:46:47;;;;;;;8.15;2.30;;;;;;;12.78;83.35;99368.01;1695341;83;25800;-79
2022/09/18 08:49:28;;;;;;;5.22;2.00;;;;;;;12.84;83.77;99364.39;1685419;83;27467;-79
2022/09/18 08:52:02;;;;;;;2.52;1.70;;;;;;;12.95;83.62;99362.25;1681845;84;26619;-77
2022/09/18 08:54:34;;;;;;;4.80;2.10;;;;;;;13.06;83.47;99361.48;1681399;83;25727;-77
2022/09/18 08:57:26;;;;;;;5.03;2.25;;;;;;;13.11;82.67;99362.92;1677057;84;26396;-77
2022/09/18 09:00:05;;;;;;;3.47;1.75;;;;;;;13.18;82.70;99358.27;1687243;83;25705;-78
2022/09/18 09:02:51;;;;;;;4.85;1.57;;;;;;;13.24;82.19;99357.88;1687315;83;27680;-78
2022/09/18 09:05:23;;;;;;;2.83;1.70;;;;;;;13.24;81.81;99360.02;1674105;83;26293;-78
2022/09/18 09:08:18;;;;;;;8.90;2.35;;;;;;;13.30;81.72;99355.05;1660381;85;26444;-78
2022/09/18 09:10:59;;;;;;;5.15;2.00;;;;;;;13.35;81.89;99351.66;1668726;84;25777;-79
2022/09/18 09:13:43;;;;;;;4.10;2.22;;;;;;;13.42;81.84;99359.08;1677722;84;25869;-79
2022/09/18 09:16:40;;;;;;;5.78;2.02;;;;;;;13.47;81.08;99363.24;1692326;83;27469;-79
2022/09/18 09:19:27;;;;;;;6.22;2.20;;;;;;;13.42;80.78;99357.73;1667046;83;26397;-78
2022/09/18 09:22:37;;;;;;;4.92;2.20;;;;;;;13.45;81.42;99354.59;1684819;83;25343;-78
2022/09/18 09:25:22;;;;;;;5.42;3.58;;;;;;;13.51;81.47;99357.68;1688087;83;26638;-78
2022/09/18 09:28:16;;;;;;;3.98;2.37;;;;;;;13.56;80.78;99362.63;1682474;84;25294;-79
2022/09/18 09:31:01;;;;;;;5.03;3.02;;;;;;;13.58;80.85;99361.08;1686916;84;27494;-79
2022/09/18 09:34:14;;;;;;;;;;;;;;;13.59;80.41;99367.55;1686348;84;26556;-79
2022/09/18 09:36:55;;;;;;;7.58;2.92;;;;;;;13.58;79.83;99366.45;1698956;82;25936;-79
2022/09/18 09:39:36;;;;;;;5.60;3.00;;;;;;;13.56;79.84;99368.02;1691143;84;25873;-78
2022/09/18 09:42:14;;;;;;;4.60;2.22;;;;;;;13.60;79.53;99369.73;1656558;84;25896;-78
2022/09/18 09:44:52;;;;;;;3.77;2.50;;;;;;;13.63;79.56;99375.96;1691214;83;28270;-78
2022/09/18 09:47:41;;;;;;;6.15;3.35;;;;;;;13.64;79.06;99369.54;1695367;83;25757;-78
2022/09/18 09:50:41;;;;;;;4.60;3.60;;;;;;;13.65;78.41;99381.92;1688021;83;26485;-79
2022/09/18 09:53:11;;;;;;;5.67;3.20;;;;;;;13.63;78.46;99382.17;1657771;83;27550;-79
2022/09/18 09:55:59;;;;;;;4.97;2.95;;;;;;;13.68;78.41;99381.47;1646391;85;25366;-78
2022/09/18 09:59:00;;;;;;;6.72;3.02;;;;;;;13.66;78.07;99384.41;1610264;86;28341;-79
2022/09/18 10:01:55;;;;;;;3.95;2.58;;;;;;;13.62;78.32;99391.28;1624433;85;26433;-79
2022/09/18 10:04:34;;;;;;;4.92;3.05;;;;;;;13.65;78.71;99385.44;1635983;86;25859;-79
2022/09/18 10:07:40;;;;;;;5.47;3.35;;;;;;;13.72;78.45;99389.36;1644485;85;25825;-78
2022/09/18 10:10:21;;;;;;;3.25;2.92;;;;;;;13.80;78.99;99398.41;1653309;85;25839;-78
2022/09/18 10:13:03;;;;;;;5.45;3.00;;;;;;;13.85;78.06;99398.52;1626810;87;28393;-78
2022/09/18 10:15:46;;;;;;;5.40;2.70;;;;;;;13.84;77.78;99406.30;1654735;85;25917;-79
2022/09/18 10:18:20;;;;;;;5.78;3.17;;;;;;;13.88;78.10;99402.89;1621210;87;26477;-78
2022/09/18 10:20:54;;;;;;;4.65;3.00;;;;;;;13.93;77.60;99405.70;1685050;84;25782;-79
2022/09/18 10:23:25;;;;;;;7.28;3.67;;;;;;;13.98;78.01;99406.34;1688546;84;25893;-78
2022/09/18 10:25:59;;;;;;;4.95;2.92;;;;;;;14.06;77.99;99415.91;1693782;81;28310;-79
2022/09/18 10:28:28;;;;;;;6.00;3.22;;;;;;;14.14;77.68;99417.70;1702270;83;25850;-78
2022/09/18 10:31:11;;;;;;;4.53;2.77;;;;;;;14.19;77.91;99417.82;1698605;83;26532;-78
2022/09/18 10:33:46;;;;;;;3.30;2.72;;;;;;;14.25;77.31;99416.03;1650110;85;25828;-79
2022/09/18 10:36:40;;;;;;;13.32;3.02;;;;;;;14.31;77.33;99417.28;1693268;83;26325;-78
2022/09/18 10:39:30;;;;;;;4.45;2.95;;;;;;;14.38;77.11;99417.97;1674698;83;27534;-79
2022/09/18 10:42:03;;;;;;;3.87;2.58;;;;;;;14.42;76.49;99419.13;1688192;83;25812;-78
2022/09/18 10:44:36;;;;;;;4.50;2.65;;;;;;;14.50;76.65;99422.77;1695153;83;25804;-77
2022/09/18 10:47:09;;;;;;;6.45;2.92;;;;;;;14.57;76.19;99422.11;1691150;83;26567;-78
2022/09/18 10:49:50;;;;;;;4.80;2.92;;;;;;;14.63;75.67;99416.27;1705030;83;25856;-78
2022/09/18 10:52:39;;;;;;;5.05;2.72;;;;;;;14.64;75.19;99423.31;1693303;83;27623;-78
2022/09/18 10:55:19;;;;;;;4.78;3.00;;;;;;;14.68;75.33;99424.45;1703033;83;25826;-79
2022/09/18 10:58:02;;;;;;;3.70;2.75;;;;;;;14.75;74.89;99426.48;1686240;83;25798;-78
2022/09/18 11:00:33;;;;;;;;;;;;;;;14.74;74.47;99419.97;1698477;83;26559;-78
2022/09/18 11:03:23;;;;;;;4.05;2.15;;;;;;;14.69;74.34;99427.45;1691737;83;25756;-78
2022/09/18 11:05:57;;;;;;;4.90;2.10;;;;;;;14.65;74.25;99428.45;1703224;83;27465;-78
2022/09/18 11:08:32;;;;;;;5.70;2.10;;;;;;;14.61;74.03;99427.30;1650859;85;26183;-79
2022/09/18 11:11:04;;;;;;;7.08;2.12;;;;;;;14.59;73.79;99423.20;1664853;85;26488;-78
2022/09/18 11:13:43;;;;;;;4.08;2.10;;;;;;;14.57;73.87;99425.33;1662204;84;26135;-78
2022/09/18 11:16:17;;;;;;;5.90;1.77;;;;;;;14.57;73.90;99428.02;1681996;83;26383;-77
2022/09/18 11:18:46;;;;;;;6.87;2.08;;;;;;;14.54;73.51;99430.66;1694327;83;27462;-78
2022/09/18 11:21:13;;;;;;;3.42;2.12;;;;;;;14.48;73.77;99431.63;1690536;83;25763;-77
2022/09/18 11:23:42;;;;;;;2.95;2.00;;;;;;;14.46;73.48;99431.05;1692506;82;25820;-77
2022/09/18 11:26:27;;;;;;;3.58;1.92;;;;;;;14.46;73.61;99432.91;1691694;83;26774;-77
2022/09/18 11:29:24;;;;;;;2.98;1.67;;;;;;;14.43;73.44;99433.41;1679947;84;25928;-78
2022/09/18 11:31:56;;;;;;;2.17;1.87;;;;;;;14.43;73.70;99432.07;1684465;83;27447;-79
2022/09/18 11:34:28;;;;;;;2.20;1.75;;;;;;;14.43;73.82;99433.41;1701760;83;25780;-79
2022/09/18 11:37:04;;;;;;;2.95;1.62;;;;;;;14.43;73.35;99427.50;1688116;84;25789;-79
2022/09/18 11:39:41;;;;;;;3.55;1.80;;;;;;;14.44;73.51;99432.34;1692448;83;25778;-78
2022/09/18 11:42:12;;;;;;;4.60;2.05;;;;;;;14.42;73.03;99431.77;1687441;84;26427;-79
2022/09/18 11:44:39;;;;;;;5.03;1.80;;;;;;;14.39;72.97;99426.88;1690252;83;27457;-79
2022/09/18 11:47:31;;;;;;;2.83;1.82;;;;;;;14.37;72.77;99426.30;1678656;84;26425;-79
2022/09/18 11:50:21;;;;;;;5.03;1.90;;;;;;;14.37;73.01;99426.30;1684160;84;25778;-79
2022/09/18 11:52:54;;;;;;;3.58;1.95;;;;;;;14.33;72.70;99428.63;1681613;83;26692;-78
2022/09/18 11:55:37;;;;;;;3.60;2.00;;;;;;;14.34;73.01;99426.77;1695136;83;25996;-80
2022/09/18 11:58:17;;;;;;;4.87;2.33;;;;;;;14.36;73.06;99429.52;1691781;83;27462;-79
2022/09/18 12:00:55;;;;;;;6.87;2.50;;;;;;;14.39;72.87;99422.83;1679450;83;25820;-79
2022/09/18 12:03:33;;;;;;;5.37;2.25;;;;;;;14.41;72.71;99422.06;1663683;83;26444;-78
2022/09/18 12:06:08;;;;;;;3.92;2.60;;;;;;;14.45;73.31;99425.91;1693097;83;26299;-79
2022/09/18 12:09:06;;;;;;;4.15;2.95;;;;;;;14.48;73.42;99431.63;1691756;83;25916;-78